Flight Track Log - Related Links

Times and Time Zones

All times are in EDT time to prevent confusion due to time zone crossing. See the UAL481 flight status page for this flight to view local times or setup timezone preferences in your user account.

Time Position Orientation Groundspeed Altitude Reporting Facility
EDT Latitude Longitude Course Direction KTS MPH feet Rate Location/Type
Thu 07:29:42 PM 42.7136 -73.9292 282° West 286 329 4,600  Level Boston Center
Thu 07:30:00 PM 42.8087 -74.1977 284° West  Level FlightAware Approximate
Thu 07:30:24 PM 42.7406 -73.9553 325° Northwest 318 366 6,200  Level Boston Center
Thu 07:31:00 PM 42.8331 -74.3322 284° West  Level FlightAware Approximate
Thu 07:31:25 PM 42.8186 -74.0281 326° Northwest 308 354 10,200  Level Boston Center
Thu 07:32:00 PM 42.8557 -74.4673 283° West  Level FlightAware Approximate
Thu 07:32:36 PM 42.8969 -74.0953 328° Northwest 313 360 11,300  Level Boston Center
Thu 07:33:00 PM 42.8900 -74.5918 282° West  Level FlightAware Approximate
Thu 07:33:37 PM 42.9658 -74.2306 305° West 362 417 14,700  Level Boston Center
Thu 07:34:00 PM 42.9115 -74.7274 282° West  Level FlightAware Approximate
Thu 07:34:37 PM 42.9822 -74.3728 279° West 345 397 17,800  Level Boston Center
Thu 07:35:00 PM 42.9328 -74.8631 282° West  Level FlightAware Approximate
Thu 07:35:37 PM 42.9947 -74.4839 279° West 359 413 18,900  Level Boston Center
Thu 07:36:37 PM 43.0106 -74.6464 278° West 382 440 20,500 1,750 Climbing Boston Center
Thu 07:37:37 PM 43.0261 -74.8003 278° West 398 458 22,400 1,650 Climbing Boston Center
Thu 07:38:37 PM 43.0436 -74.9544 279° West 409 471 23,800 1,350 Climbing Boston Center
Thu 07:39:37 PM 43.0589 -75.1142 278° West 415 478 25,100 1,200 Climbing Boston Center
Thu 07:40:37 PM 43.0739 -75.2711 278° West 415 478 26,200 1,150 Climbing Boston Center
Thu 07:41:37 PM 43.0883 -75.4339 277° West 426 490 27,400 1,050 Climbing Boston Center
Thu 07:42:37 PM 43.1047 -75.5997 278° West 438 504 28,300 1,000 Climbing Boston Center
Thu 07:43:37 PM 43.1208 -75.7656 278° West 443 510 29,400 1,200 Climbing Boston Center
Thu 07:44:37 PM 43.1369 -75.9317 278° West 448 516 30,700 1,350 Climbing Boston Center
Thu 07:45:37 PM 43.1542 -76.1119 278° West 443 510 32,100 1,261 Climbing Boston Center
Thu 07:47:33 PM 43.1881 -76.4256 279° West 441 507 34,400 1,193 Climbing Cleveland Center
Thu 07:48:33 PM 43.2061 -76.5897 279° West 441 507 35,600 750 Climbing Cleveland Center
Thu 07:49:33 PM 43.2033 -76.7494 269° West 436 502 35,900 200 Climbing Cleveland Center
Thu 07:50:33 PM 43.2022 -76.9119 270° West 436 502 36,000 50 Climbing Cleveland Center
Thu 07:51:33 PM 43.1969 -77.0744 268° West 436 502 36,000  Level Cleveland Center
Thu 07:52:33 PM 43.1936 -77.2400 268° West 441 507 36,000  Level Cleveland Center
Thu 07:53:33 PM 43.1900 -77.4081 268° West 441 507 36,000  Level Cleveland Center
Thu 07:54:33 PM 43.1881 -77.5733 269° West 441 507 36,000  Level Cleveland Center
Thu 07:55:33 PM 43.1839 -77.7389 268° West 441 507 36,000  Level Cleveland Center
Thu 07:56:33 PM 43.1775 -77.9100 267° West 441 507 36,000  Level Cleveland Center
Thu 07:57:33 PM 43.1728 -78.0753 268° West 441 507 36,000  Level Cleveland Center
Thu 07:58:33 PM 43.1681 -78.2433 268° West 441 507 36,000  Level Cleveland Center
Thu 07:59:33 PM 43.1631 -78.4172 268° West 447 514 36,000  Level Cleveland Center
Thu 08:00:33 PM 43.1556 -78.5825 266° West 447 514 36,000  Level Cleveland Center
Thu 08:01:33 PM 43.1503 -78.7506 268° West 447 514 36,000  Level Cleveland Center
Thu 08:02:33 PM 43.1444 -78.9217 267° West 447 514 36,000  Level Cleveland Center
Thu 08:03:33 PM 43.1364 -79.0925 266° West 447 514 36,000  Level Cleveland Center
Thu 08:04:29 PM 43.1167 -79.2167 258° West 450 518 36,000  Level Toronto Center
Thu 08:05:29 PM 43.1167 -79.4000 270° West 450 518 36,000  Level Toronto Center
Thu 08:06:29 PM 43.1000 -79.5667 262° West 450 518 36,000  Level Toronto Center
Thu 08:07:29 PM 43.1000 -79.7500 270° West 440 506 36,000  Level Toronto Center
Thu 08:08:29 PM 43.1000 -79.9000 270° West 440 506 36,000  Level Toronto Center
Thu 08:09:29 PM 43.0833 -80.0833 263° West 440 506 36,000  Level Toronto Center
Thu 08:10:29 PM 43.0833 -80.2500 270° West 450 518 36,000 50 Level Toronto Center
Thu 08:11:29 PM 43.0667 -80.4167 262° West 450 518 36,100  Climbing Toronto Center
Thu 08:12:29 PM 43.0667 -80.5833 270° West 450 518 36,000 50 Descending Toronto Center
Thu 08:13:29 PM 43.0500 -80.7500 262° West 450 518 36,200 550 Climbing Toronto Center
Thu 08:14:29 PM 43.0333 -80.9167 262° West 430 495 37,100 850 Climbing Toronto Center
Thu 08:15:29 PM 43.0167 -81.1000 263° West 430 495 37,900 450 Climbing Toronto Center
Thu 08:16:29 PM 43.0167 -81.2500 270° West 450 518 38,000 50 Climbing Toronto Center
Thu 08:17:29 PM 43.0167 -81.4333 270° West 440 506 38,000  Level Toronto Center
Thu 08:18:29 PM 43.0167 -81.6000 270° West 440 506 38,000  Level Toronto Center
Thu 08:19:29 PM 43.0167 -81.7500 270° West 430 495 38,000  Level Toronto Center
Thu 08:20:29 PM 43.0000 -81.9167 262° West 410 472 38,000  Level Toronto Center
Thu 08:21:29 PM 43.0000 -82.0500 270° West 410 472 38,000  Level Toronto Center
Thu 08:22:29 PM 43.0000 -82.2333 270° West 420 483 38,000  Level Toronto Center
Thu 08:23:29 PM 43.0000 -82.3667 270° West 420 483 38,000 -99 Level Toronto Center
Thu 08:24:30 PM 43.0000 -82.5500 270° West 420 483 37,800 -550 Descending Toronto Center
Thu 08:25:29 PM 42.9833 -82.7167 262° West 420 483 36,900 -908 Descending Toronto Center
Thu 08:26:29 PM 42.9833 -82.8500 270° West 420 483 36,000 -950 Descending Toronto Center
Thu 08:27:29 PM 42.9667 -83.0333 263° West 430 495 35,000 -1,000 Descending Toronto Center
Thu 08:28:29 PM 42.9667 -83.1833 270° West 430 495 34,000 -1,041 Descending Toronto Center
Thu 08:29:30 PM 42.9500 -83.3667 263° West 440 506 32,900 -950 Descending Toronto Center
Thu 08:30:29 PM 42.9500 -83.5333 270° West 450 518 32,100 -454 Descending Toronto Center
Thu 08:31:29 PM 42.9167 -83.7167 256° West 450 518 32,000 -50 Descending Toronto Center
Thu 08:32:29 PM 42.9167 -83.8667 270° West 450 518 32,000  Level Toronto Center
Thu 08:33:29 PM 42.9167 -84.0500 270° West 440 506 32,000  Level Toronto Center
Thu 08:35:09 PM 42.9047 -84.2894 266° West 444 511 32,000  Level Chicago Center
Thu 08:36:11 PM 42.8914 -84.4881 265° West 442 509 32,000  Level Chicago Center
Thu 08:37:13 PM 42.8781 -84.6522 264° West 438 504 32,000  Level Chicago Center
Thu 08:38:15 PM 42.8603 -84.8158 262° West 437 503 32,000  Level Chicago Center
Thu 08:39:18 PM 42.8436 -84.9750 262° West 430 495 32,000 -48 Level Chicago Center
Thu 08:40:20 PM 42.8264 -85.1333 262° West 425 489 31,900 -823 Descending Chicago Center
Thu 08:41:22 PM 42.8100 -85.2892 262° West 419 482 30,300 -1,790 Descending Chicago Center
Thu 08:43:00 PM 42.7754 -85.5205 254° West  Level FlightAware Approximate
Thu 08:44:28 PM 42.7353 -85.7792 254° West 406 467 24,500  Level Chicago Center
Thu 08:45:30 PM 42.7089 -85.9231 256° West 394 453 22,700 -1,452 Descending Chicago Center
Thu 08:47:00 PM 42.6666 -86.1253 253° West  Level FlightAware Approximate
Thu 08:47:34 PM 42.6597 -86.1956 253° West 365 420 20,000  Level Chicago Center
Thu 08:48:36 PM 42.6347 -86.3275 256° West 360 414 20,000  Level Chicago Center
Thu 08:49:39 PM 42.6094 -86.4589 255° West 359 413 20,000 -1,056 Level Chicago Center
Thu 08:50:41 PM 42.5808 -86.6164 256° West 357 411 17,800 -1,839 Descending Chicago Center
Thu 08:51:43 PM 42.5575 -86.7431 256° West 349 402 16,200 -2,419 Descending Chicago Center
Thu 08:52:45 PM 42.5258 -86.8561 249° West 327 376 12,800 -2,710 Descending Chicago Center
Thu 08:53:47 PM 42.4931 -86.9717 249° West 329 379 10,600 -1,355 Descending Chicago Center
Thu 08:54:49 PM 42.4619 -87.0803 249° West 313 360 10,000 -290 Descending Chicago Center
Thu 08:55:51 PM 42.4356 -87.1800 250° West 287 330 10,000  Level Chicago Center
Thu 08:56:53 PM 42.3978 -87.2956 246° West 284 327 10,000  Level Chicago Center
Thu 08:57:55 PM 42.3383 -87.3731 224° Southwest 296 341 10,000  Level Chicago Center
Thu 08:58:58 PM 42.2847 -87.4589 230° Southwest 291 335 10,000 -528 Level Chicago Center
Thu 09:00:00 PM 42.2569 -87.5561 249° West 280 322 8,900 -1,210 Descending Chicago Center
Thu 09:01:02 PM 42.2183 -87.6453 240° Southwest 292 336 7,500 -919 Descending Chicago Center
Thu 09:02:04 PM 42.1606 -87.7103 220° Southwest 274 315 7,000 -242 Descending Chicago Center
Thu 09:03:06 PM 42.1008 -87.7800 221° Southwest 242 278 7,000  Level Chicago Center
Thu 09:04:08 PM 42.0711 -87.8531 241° Southwest 225 259 7,000  Level Chicago Center
Thu 09:04:39 PM 42.0667 -87.9000 263° West 230 265 7,000  Level Chicago TRACON
Thu 09:05:45 PM 42.0667 -88.0000 270° West 222 255 7,000  Level Chicago TRACON
Thu 09:06:39 PM 42.0667 -88.0667 270° West 220 253 7,000 -526 Level Chicago TRACON
Thu 09:07:39 PM 42.0667 -88.1500 270° West 216 249 6,000 -990 Descending Chicago TRACON
Thu 09:08:16 PM 42.0714 -88.1992 277° West 217 250 5,400 -667 Descending Chicago Center
Thu 09:09:18 PM 42.0517 -88.2761 251° West 238 274 4,900 -194 Descending Chicago Center
Thu 09:10:20 PM 41.9853 -88.2717 177° South 248 285 5,000 -194 Climbing Chicago Center
Thu 09:11:22 PM 41.9672 -88.1906 107° East 232 267 4,500 -484 Descending Chicago Center

Login

Don't have an account? Register now (free) for customized features, flight alerts, and more!